sensor_id;sensor_type;location;lat;lon;timestamp;pressure;altitude;pressure_sealevel;temperature;humidity
72548;BME280;60570;50.848;6.776;2023-05-12T00:00:59;100365.97;;;16.48;68.51
72548;BME280;60570;50.848;6.776;2023-05-12T00:02:01;100357.56;;;16.48;68.69
72548;BME280;60570;50.848;6.776;2023-05-12T00:03:03;100355.91;;;16.47;68.66
72548;BME280;60570;50.848;6.776;2023-05-12T00:04:04;100362.31;;;16.48;68.68
72548;BME280;60570;50.848;6.776;2023-05-12T00:05:05;100361.16;;;16.49;68.62
72548;BME280;60570;50.848;6.776;2023-05-12T00:06:06;100355.91;;;16.47;68.80
72548;BME280;60570;50.848;6.776;2023-05-12T00:07:08;100365.13;;;16.48;68.64
72548;BME280;60570;50.848;6.776;2023-05-12T00:08:08;100365.22;;;16.51;68.52
72548;BME280;60570;50.848;6.776;2023-05-12T00:09:10;100364.69;;;16.46;68.62
72548;BME280;60570;50.848;6.776;2023-05-12T00:10:10;100358.69;;;16.44;68.77
72548;BME280;60570;50.848;6.776;2023-05-12T00:11:13;100359.91;;;16.46;68.61
72548;BME280;60570;50.848;6.776;2023-05-12T00:12:14;100364.69;;;16.46;68.85
72548;BME280;60570;50.848;6.776;2023-05-12T00:13:15;100364.69;;;16.46;68.81
72548;BME280;60570;50.848;6.776;2023-05-12T00:14:16;100360.72;;;16.47;68.49
72548;BME280;60570;50.848;6.776;2023-05-12T00:15:18;100358.72;;;16.47;68.58
72548;BME280;60570;50.848;6.776;2023-05-12T00:16:19;100357.91;;;16.47;68.69
72548;BME280;60570;50.848;6.776;2023-05-12T00:17:22;100358.28;;;16.45;68.71
72548;BME280;60570;50.848;6.776;2023-05-12T00:18:22;100358.28;;;16.45;68.74
72548;BME280;60570;50.848;6.776;2023-05-12T00:19:24;100355.09;;;16.47;68.58
72548;BME280;60570;50.848;6.776;2023-05-12T00:20:24;100358.72;;;16.47;68.43
72548;BME280;60570;50.848;6.776;2023-05-12T00:21:26;100354.75;;;16.48;68.43
72548;BME280;60570;50.848;6.776;2023-05-12T00:22:26;100355.56;;;16.49;68.47
72548;BME280;60570;50.848;6.776;2023-05-12T00:23:28;100356.38;;;16.49;68.61
72548;BME280;60570;50.848;6.776;2023-05-12T00:24:28;100359.19;;;16.49;68.46
72548;BME280;60570;50.848;6.776;2023-05-12T00:25:29;100356.28;;;16.46;68.40
72548;BME280;60570;50.848;6.776;2023-05-12T00:26:30;100348.63;;;16.43;68.63
72548;BME280;60570;50.848;6.776;2023-05-12T00:27:31;100356.22;;;16.42;68.90
72548;BME280;60570;50.848;6.776;2023-05-12T00:28:32;100345.88;;;16.46;68.58
72548;BME280;60570;50.848;6.776;2023-05-12T00:29:35;100352.28;;;16.47;68.46
72548;BME280;60570;50.848;6.776;2023-05-12T00:30:36;100349.06;;;16.45;68.53
72548;BME280;60570;50.848;6.776;2023-05-12T00:31:37;100353.91;;;16.48;68.45
72548;BME280;60570;50.848;6.776;2023-05-12T00:32:39;100354.66;;;16.45;68.76
72548;BME280;60570;50.848;6.776;2023-05-12T00:33:41;100349.50;;;16.47;68.58
72548;BME280;60570;50.848;6.776;2023-05-12T00:34:41;100342.22;;;16.42;68.85
72548;BME280;60570;50.848;6.776;2023-05-12T00:35:43;100337.81;;;16.41;68.97
72548;BME280;60570;50.848;6.776;2023-05-12T00:36:44;100346.22;;;16.41;68.73
72548;BME280;60570;50.848;6.776;2023-05-12T00:37:46;100336.97;;;16.41;68.84
72548;BME280;60570;50.848;6.776;2023-05-12T00:38:46;100343.84;;;16.43;68.81
72548;BME280;60570;50.848;6.776;2023-05-12T00:39:48;100344.22;;;16.42;68.70
72548;BME280;60570;50.848;6.776;2023-05-12T00:40:48;100338.53;;;16.38;69.00
72548;BME280;60570;50.848;6.776;2023-05-12T00:41:53;100341.78;;;16.40;68.89
72548;BME280;60570;50.848;6.776;2023-05-12T00:42:54;100346.16;;;16.38;68.86
72548;BME280;60570;50.848;6.776;2023-05-12T00:43:55;100339.34;;;16.39;68.75
72548;BME280;60570;50.848;6.776;2023-05-12T00:44:56;100334.13;;;16.37;68.95
72548;BME280;60570;50.848;6.776;2023-05-12T00:45:58;100341.00;;;16.40;68.67
72548;BME280;60570;50.848;6.776;2023-05-12T00:46:58;100337.41;;;16.43;68.75
72548;BME280;60570;50.848;6.776;2023-05-12T00:48:02;100346.59;;;16.40;68.63
72548;BME280;60570;50.848;6.776;2023-05-12T00:49:03;100344.97;;;16.39;68.92
72548;BME280;60570;50.848;6.776;2023-05-12T00:50:05;100347.03;;;16.42;68.99
72548;BME280;60570;50.848;6.776;2023-05-12T00:51:07;100351.00;;;16.41;68.69
72548;BME280;60570;50.848;6.776;2023-05-12T00:52:08;100341.00;;;16.40;68.94
72548;BME280;60570;50.848;6.776;2023-05-12T00:53:09;100340.16;;;16.39;68.88
72548;BME280;60570;50.848;6.776;2023-05-12T00:54:11;100344.53;;;16.37;68.66
72548;BME280;60570;50.848;6.776;2023-05-12T00:55:12;100343.72;;;16.36;69.03
72548;BME280;60570;50.848;6.776;2023-05-12T00:56:13;100342.53;;;16.37;68.81
72548;BME280;60570;50.848;6.776;2023-05-12T00:57:15;100339.31;;;16.35;68.90
72548;BME280;60570;50.848;6.776;2023-05-12T00:58:18;100337.75;;;16.38;68.87
72548;BME280;60570;50.848;6.776;2023-05-12T00:59:19;100338.94;;;16.37;69.05
72548;BME280;60570;50.848;6.776;2023-05-12T01:00:20;100346.16;;;16.38;68.86
72548;BME280;60570;50.848;6.776;2023-05-12T01:01:23;100340.91;;;16.36;68.94
72548;BME280;60570;50.848;6.776;2023-05-12T01:02:26;100342.53;;;16.37;68.92
72548;BME280;60570;50.848;6.776;2023-05-12T01:03:29;100336.91;;;16.34;68.93
72548;BME280;60570;50.848;6.776;2023-05-12T01:04:30;100334.53;;;16.36;68.90
72548;BME280;60570;50.848;6.776;2023-05-12T01:05:33;100332.94;;;16.38;68.88
72548;BME280;60570;50.848;6.776;2023-05-12T01:06:37;100337.31;;;16.36;68.96
72548;BME280;60570;50.848;6.776;2023-05-12T01:07:38;100337.25;;;16.32;69.01
72548;BME280;60570;50.848;6.776;2023-05-12T01:08:39;100330.91;;;16.35;69.15
72548;BME280;60570;50.848;6.776;2023-05-12T01:09:40;100335.75;;;16.38;68.86
72548;BME280;60570;50.848;6.776;2023-05-12T01:10:42;100332.16;;;16.38;68.76
72548;BME280;60570;50.848;6.776;2023-05-12T01:11:43;100337.31;;;16.36;68.95
72548;BME280;60570;50.848;6.776;2023-05-12T01:12:44;100333.72;;;16.35;68.86
72548;BME280;60570;50.848;6.776;2023-05-12T01:13:45;100336.06;;;16.33;68.94
72548;BME280;60570;50.848;6.776;2023-05-12T01:14:47;100334.09;;;16.34;69.00
72548;BME280;60570;50.848;6.776;2023-05-12T01:15:48;100332.88;;;16.35;68.96
72548;BME280;60570;50.848;6.776;2023-05-12T01:16:52;100324.47;;;16.35;68.95
72548;BME280;60570;50.848;6.776;2023-05-12T01:17:55;100328.91;;;16.36;68.80
72548;BME280;60570;50.848;6.776;2023-05-12T01:18:59;100324.03;;;16.33;68.97
72548;BME280;60570;50.848;6.776;2023-05-12T01:20:03;100321.63;;;16.31;68.91
72548;BME280;60570;50.848;6.776;2023-05-12T01:21:06;100323.66;;;16.34;68.99
72548;BME280;60570;50.848;6.776;2023-05-12T01:22:07;100325.28;;;16.35;68.93
72548;BME280;60570;50.848;6.776;2023-05-12T01:23:09;100327.22;;;16.31;69.04
72548;BME280;60570;50.848;6.776;2023-05-12T01:24:10;100321.66;;;16.35;69.01
72548;BME280;60570;50.848;6.776;2023-05-12T01:25:12;100325.69;;;16.34;68.79
72548;BME280;60570;50.848;6.776;2023-05-12T01:26:16;100318.88;;;16.35;68.99
72548;BME280;60570;50.848;6.776;2023-05-12T01:27:18;100320.06;;;16.34;69.00
72548;BME280;60570;50.848;6.776;2023-05-12T01:28:19;100320.03;;;16.30;69.01
72548;BME280;60570;50.848;6.776;2023-05-12T01:29:21;100315.59;;;16.29;69.06
72548;BME280;60570;50.848;6.776;2023-05-12T01:30:22;100321.19;;;16.29;69.20
72548;BME280;60570;50.848;6.776;2023-05-12T01:31:24;100319.63;;;16.32;68.96
72548;BME280;60570;50.848;6.776;2023-05-12T01:32:25;100315.59;;;16.29;69.04
72548;BME280;60570;50.848;6.776;2023-05-12T01:33:27;100317.22;;;16.30;68.93
72548;BME280;60570;50.848;6.776;2023-05-12T01:34:28;100313.19;;;16.28;69.09
72548;BME280;60570;50.848;6.776;2023-05-12T01:35:29;100307.59;;;16.31;68.98
72548;BME280;60570;50.848;6.776;2023-05-12T01:36:30;100317.22;;;16.30;69.17
72548;BME280;60570;50.848;6.776;2023-05-12T01:37:31;100309.56;;;16.27;68.93
72548;BME280;60570;50.848;6.776;2023-05-12T01:38:32;100310.81;;;16.30;68.99
72548;BME280;60570;50.848;6.776;2023-05-12T01:39:33;100306.75;;;16.27;69.26
72548;BME280;60570;50.848;6.776;2023-05-12T01:40:34;100313.59;;;16.30;68.91
72548;BME280;60570;50.848;6.776;2023-05-12T01:41:37;100311.97;;;16.29;69.04
72548;BME280;60570;50.848;6.776;2023-05-12T01:42:38;100309.59;;;16.31;68.96
72548;BME280;60570;50.848;6.776;2023-05-12T01:43:40;100306.38;;;16.29;68.97
72548;BME280;60570;50.848;6.776;2023-05-12T01:44:40;100299.53;;;16.26;69.06
72548;BME280;60570;50.848;6.776;2023-05-12T01:45:42;100306.75;;;16.27;69.17
72548;BME280;60570;50.848;6.776;2023-05-12T01:46:42;100294.72;;;16.27;69.04
72548;BME280;60570;50.848;6.776;2023-05-12T01:47:44;100291.13;;;16.26;69.08
72548;BME280;60570;50.848;6.776;2023-05-12T01:48:44;100294.72;;;16.27;69.09
72548;BME280;60570;50.848;6.776;2023-05-12T01:49:46;100291.13;;;16.26;69.26
72548;BME280;60570;50.848;6.776;2023-05-12T01:50:46;100289.50;;;16.25;69.35
72548;BME280;60570;50.848;6.776;2023-05-12T01:51:48;100284.31;;;16.27;69.13
72548;BME280;60570;50.848;6.776;2023-05-12T01:52:48;100276.69;;;16.24;69.29
72548;BME280;60570;50.848;6.776;2023-05-12T01:53:50;100276.72;;;16.28;69.16
72548;BME280;60570;50.848;6.776;2023-05-12T01:54:50;100272.69;;;16.25;69.19
72548;BME280;60570;50.848;6.776;2023-05-12T01:55:52;100271.13;;;16.28;68.96
72548;BME280;60570;50.848;6.776;2023-05-12T01:56:53;100268.72;;;16.26;69.28
72548;BME280;60570;50.848;6.776;2023-05-12T01:57:55;100275.06;;;16.23;69.51
72548;BME280;60570;50.848;6.776;2023-05-12T01:58:55;100271.50;;;16.26;69.17
72548;BME280;60570;50.848;6.776;2023-05-12T01:59:57;100275.47;;;16.25;69.29
72548;BME280;60570;50.848;6.776;2023-05-12T02:00:57;100274.25;;;16.23;69.11
72548;BME280;60570;50.848;6.776;2023-05-12T02:01:59;100278.66;;;16.24;69.18
72548;BME280;60570;50.848;6.776;2023-05-12T02:02:59;100271.00;;;16.21;69.17
72548;BME280;60570;50.848;6.776;2023-05-12T02:04:01;100273.88;;;16.24;69.03
72548;BME280;60570;50.848;6.776;2023-05-12T02:05:03;100280.66;;;16.23;69.26
72548;BME280;60570;50.848;6.776;2023-05-12T02:06:05;100276.31;;;16.26;69.07
72548;BME280;60570;50.848;6.776;2023-05-12T02:07:05;100276.25;;;16.22;69.14
72548;BME280;60570;50.848;6.776;2023-05-12T02:08:06;100275.47;;;16.25;68.94
72548;BME280;60570;50.848;6.776;2023-05-12T02:09:07;100273.50;;;16.26;69.31
72548;BME280;60570;50.848;6.776;2023-05-12T02:10:09;100274.25;;;16.23;68.98
72548;BME280;60570;50.848;6.776;2023-05-12T02:11:09;100284.66;;;16.22;68.86
72548;BME280;60570;50.848;6.776;2023-05-12T02:12:12;100277.44;;;16.21;69.04
72548;BME280;60570;50.848;6.776;2023-05-12T02:13:13;100285.84;;;16.21;69.27
72548;BME280;60570;50.848;6.776;2023-05-12T02:14:14;100284.59;;;16.18;69.30
72548;BME280;60570;50.848;6.776;2023-05-12T02:15:15;100280.63;;;16.20;69.33
72548;BME280;60570;50.848;6.776;2023-05-12T02:16:16;100285.84;;;16.21;69.15
72548;BME280;60570;50.848;6.776;2023-05-12T02:17:17;100289.84;;;16.20;69.21
72548;BME280;60570;50.848;6.776;2023-05-12T02:18:19;100286.66;;;16.22;69.07
72548;BME280;60570;50.848;6.776;2023-05-12T02:19:20;100283.03;;;16.21;69.21
72548;BME280;60570;50.848;6.776;2023-05-12T02:20:21;100279.50;;;16.24;69.15
72548;BME280;60570;50.848;6.776;2023-05-12T02:21:22;100287.03;;;16.20;69.22
72548;BME280;60570;50.848;6.776;2023-05-12T02:22:23;100285.41;;;16.19;69.17
72548;BME280;60570;50.848;6.776;2023-05-12T02:23:24;100284.97;;;16.17;69.27
72548;BME280;60570;50.848;6.776;2023-05-12T02:24:25;100287.34;;;16.15;69.27
72548;BME280;60570;50.848;6.776;2023-05-12T02:25:26;100289.03;;;16.20;69.19
72548;BME280;60570;50.848;6.776;2023-05-12T02:26:27;100297.47;;;16.23;69.03
72548;BME280;60570;50.848;6.776;2023-05-12T02:27:29;100287.78;;;16.17;69.27
72548;BME280;60570;50.848;6.776;2023-05-12T02:28:31;100284.16;;;16.16;69.14
72548;BME280;60570;50.848;6.776;2023-05-12T02:29:32;100279.75;;;16.15;69.33
72548;BME280;60570;50.848;6.776;2023-05-12T02:30:34;100284.16;;;16.16;69.34
72548;BME280;60570;50.848;6.776;2023-05-12T02:31:34;100284.16;;;16.16;69.12
72548;BME280;60570;50.848;6.776;2023-05-12T02:32:36;100281.44;;;16.20;69.03
72548;BME280;60570;50.848;6.776;2023-05-12T02:33:36;100284.16;;;16.16;69.12
72548;BME280;60570;50.848;6.776;2023-05-12T02:34:37;100280.56;;;16.16;69.34
72548;BME280;60570;50.848;6.776;2023-05-12T02:35:38;100292.56;;;16.16;69.41
72548;BME280;60570;50.848;6.776;2023-05-12T02:36:39;100286.19;;;16.16;69.35
72548;BME280;60570;50.848;6.776;2023-05-12T02:37:40;100287.34;;;16.15;69.22
72548;BME280;60570;50.848;6.776;2023-05-12T02:38:41;100282.13;;;16.13;69.34
72548;BME280;60570;50.848;6.776;2023-05-12T02:39:42;100288.97;;;16.16;69.15
72548;BME280;60570;50.848;6.776;2023-05-12T02:40:44;100285.34;;;16.15;69.39
72548;BME280;60570;50.848;6.776;2023-05-12T02:41:45;100288.22;;;16.19;69.20
72548;BME280;60570;50.848;6.776;2023-05-12T02:42:48;100282.22;;;16.21;69.26
72548;BME280;60570;50.848;6.776;2023-05-12T02:43:48;100290.97;;;16.15;69.34
72548;BME280;60570;50.848;6.776;2023-05-12T02:44:50;100286.19;;;16.16;69.25
72548;BME280;60570;50.848;6.776;2023-05-12T02:45:50;100291.41;;;16.17;69.14
72548;BME280;60570;50.848;6.776;2023-05-12T02:46:52;100295.81;;;16.18;69.30
72548;BME280;60570;50.848;6.776;2023-05-12T02:47:52;100292.16;;;16.14;69.21
72548;BME280;60570;50.848;6.776;2023-05-12T02:48:53;100284.13;;;16.13;69.47
72548;BME280;60570;50.848;6.776;2023-05-12T02:49:54;100279.72;;;16.12;69.44
72548;BME280;60570;50.848;6.776;2023-05-12T02:50:56;100282.50;;;16.12;69.37
72548;BME280;60570;50.848;6.776;2023-05-12T02:51:56;100289.28;;;16.11;69.39
72548;BME280;60570;50.848;6.776;2023-05-12T02:52:58;100279.75;;;16.15;69.25
72548;BME280;60570;50.848;6.776;2023-05-12T02:53:58;100288.94;;;16.12;69.51
72548;BME280;60570;50.848;6.776;2023-05-12T02:55:00;100278.16;;;16.14;69.44
72548;BME280;60570;50.848;6.776;2023-05-12T02:56:01;100285.41;;;16.19;69.47
72548;BME280;60570;50.848;6.776;2023-05-12T02:57:03;100275.34;;;16.14;69.36
72548;BME280;60570;50.848;6.776;2023-05-12T02:58:05;100287.72;;;16.13;69.25
72548;BME280;60570;50.848;6.776;2023-05-12T02:59:06;100276.91;;;16.12;69.37
72548;BME280;60570;50.848;6.776;2023-05-12T03:00:07;100277.34;;;16.14;69.50
72548;BME280;60570;50.848;6.776;2023-05-12T03:01:10;100273.72;;;16.13;69.49
72548;BME280;60570;50.848;6.776;2023-05-12T03:02:11;100278.56;;;16.16;69.35
72548;BME280;60570;50.848;6.776;2023-05-12T03:03:13;100274.91;;;16.12;69.46
72548;BME280;60570;50.848;6.776;2023-05-12T03:04:13;100283.41;;;16.20;69.29
72548;BME280;60570;50.848;6.776;2023-05-12T03:05:15;100277.34;;;16.14;69.35
72548;BME280;60570;50.848;6.776;2023-05-12T03:06:16;100275.75;;;16.16;69.37
72548;BME280;60570;50.848;6.776;2023-05-12T03:07:18;100273.72;;;16.13;69.30
72548;BME280;60570;50.848;6.776;2023-05-12T03:08:18;100276.09;;;16.11;69.22
72548;BME280;60570;50.848;6.776;2023-05-12T03:09:20;100281.69;;;16.11;69.43
72548;BME280;60570;50.848;6.776;2023-05-12T03:10:21;100280.13;;;16.14;69.45
72548;BME280;60570;50.848;6.776;2023-05-12T03:11:22;100273.66;;;16.10;69.37
72548;BME280;60570;50.848;6.776;2023-05-12T03:12:23;100272.91;;;16.13;69.38
72548;BME280;60570;50.848;6.776;2023-05-12T03:13:26;100275.34;;;16.14;69.19
72548;BME280;60570;50.848;6.776;2023-05-12T03:14:26;100280.53;;;16.12;69.30
72548;BME280;60570;50.848;6.776;2023-05-12T03:15:28;100275.28;;;16.11;69.25
72548;BME280;60570;50.848;6.776;2023-05-12T03:16:29;100272.13;;;16.12;69.48
72548;BME280;60570;50.848;6.776;2023-05-12T03:17:30;100274.09;;;16.12;69.33
72548;BME280;60570;50.848;6.776;2023-05-12T03:18:31;100270.88;;;16.10;69.27
72548;BME280;60570;50.848;6.776;2023-05-12T03:19:32;100272.91;;;16.13;69.31
72548;BME280;60570;50.848;6.776;2023-05-12T03:20:34;100280.56;;;16.16;69.14
72548;BME280;60570;50.848;6.776;2023-05-12T03:21:35;100279.31;;;16.13;69.24
72548;BME280;60570;50.848;6.776;2023-05-12T03:22:36;100271.34;;;16.15;69.32
72548;BME280;60570;50.848;6.776;2023-05-12T03:23:38;100274.16;;;16.15;69.37
72548;BME280;60570;50.848;6.776;2023-05-12T03:24:38;100276.53;;;16.13;69.29
72548;BME280;60570;50.848;6.776;2023-05-12T03:25:40;100272.13;;;16.12;69.31
72548;BME280;60570;50.848;6.776;2023-05-12T03:26:40;100270.09;;;16.13;69.30
72548;BME280;60570;50.848;6.776;2023-05-12T03:27:42;100276.09;;;16.11;69.44
72548;BME280;60570;50.848;6.776;2023-05-12T03:28:43;100267.25;;;16.09;69.43
72548;BME280;60570;50.848;6.776;2023-05-12T03:29:45;100264.44;;;16.09;69.35
72548;BME280;60570;50.848;6.776;2023-05-12T03:30:45;100268.13;;;16.13;69.26
72548;BME280;60570;50.848;6.776;2023-05-12T03:31:47;100269.66;;;16.11;69.43
72548;BME280;60570;50.848;6.776;2023-05-12T03:32:47;100262.84;;;16.08;69.46
72548;BME280;60570;50.848;6.776;2023-05-12T03:33:49;100270.06;;;16.09;69.21
72548;BME280;60570;50.848;6.776;2023-05-12T03:34:49;100274.06;;;16.08;69.49
72548;BME280;60570;50.848;6.776;2023-05-12T03:35:51;100265.66;;;16.08;69.53
72548;BME280;60570;50.848;6.776;2023-05-12T03:36:51;100276.91;;;16.12;69.24
72548;BME280;60570;50.848;6.776;2023-05-12T03:37:53;100269.66;;;16.11;69.03
72548;BME280;60570;50.848;6.776;2023-05-12T03:38:53;100263.28;;;16.10;69.52
72548;BME280;60570;50.848;6.776;2023-05-12T03:39:55;100268.50;;;16.12;69.50
72548;BME280;60570;50.848;6.776;2023-05-12T03:41:02;100273.28;;;16.11;69.31
72548;BME280;60570;50.848;6.776;2023-05-12T03:42:03;100275.28;;;16.11;69.31
72548;BME280;60570;50.848;6.776;2023-05-12T03:43:05;100272.47;;;16.11;69.29
72548;BME280;60570;50.848;6.776;2023-05-12T03:44:07;100272.47;;;16.11;69.24
72548;BME280;60570;50.848;6.776;2023-05-12T03:45:09;100273.66;;;16.10;68.99
72548;BME280;60570;50.848;6.776;2023-05-12T03:46:12;100270.88;;;16.10;69.39
72548;BME280;60570;50.848;6.776;2023-05-12T03:47:13;100279.28;;;16.10;69.45
72548;BME280;60570;50.848;6.776;2023-05-12T03:48:14;100271.59;;;16.07;69.35
72548;BME280;60570;50.848;6.776;2023-05-12T03:49:15;100270.00;;;16.06;69.53
72548;BME280;60570;50.848;6.776;2023-05-12T03:50:16;100276.78;;;16.05;69.67
72548;BME280;60570;50.848;6.776;2023-05-12T03:51:17;100276.00;;;16.04;69.77
72548;BME280;60570;50.848;6.776;2023-05-12T03:52:20;100280.41;;;16.05;69.77
72548;BME280;60570;50.848;6.776;2023-05-12T03:53:20;100267.53;;;16.01;69.64
72548;BME280;60570;50.848;6.776;2023-05-12T03:54:22;100266.72;;;16.00;69.62
72548;BME280;60570;50.848;6.776;2023-05-12T03:55:22;100264.75;;;16.01;69.85
72548;BME280;60570;50.848;6.776;2023-05-12T03:56:23;100277.13;;;16.00;69.78
72548;BME280;60570;50.848;6.776;2023-05-12T03:57:24;100271.91;;;15.98;69.95
72548;BME280;60570;50.848;6.776;2023-05-12T03:58:26;100267.47;;;15.97;69.89
72548;BME280;60570;50.848;6.776;2023-05-12T03:59:30;100270.28;;;15.97;70.03
72548;BME280;60570;50.848;6.776;2023-05-12T04:00:32;100265.06;;;15.96;70.09
72548;BME280;60570;50.848;6.776;2023-05-12T04:01:33;100268.66;;;15.96;69.86
72548;BME280;60570;50.848;6.776;2023-05-12T04:02:35;100271.84;;;15.95;69.96
72548;BME280;60570;50.848;6.776;2023-05-12T04:03:35;100271.09;;;15.98;69.72
72548;BME280;60570;50.848;6.776;2023-05-12T04:04:37;100277.88;;;15.97;70.01
72548;BME280;60570;50.848;6.776;2023-05-12T04:05:39;100273.06;;;15.97;69.96
72548;BME280;60570;50.848;6.776;2023-05-12T04:06:41;100274.28;;;15.96;69.93
72548;BME280;60570;50.848;6.776;2023-05-12T04:07:42;100273.84;;;15.94;70.11
72548;BME280;60570;50.848;6.776;2023-05-12T04:08:43;100268.63;;;15.93;70.15
72548;BME280;60570;50.848;6.776;2023-05-12T04:09:44;100266.16;;;15.91;70.01
72548;BME280;60570;50.848;6.776;2023-05-12T04:10:46;100262.63;;;15.94;70.01
72548;BME280;60570;50.848;6.776;2023-05-12T04:11:47;100267.81;;;15.92;69.90
72548;BME280;60570;50.848;6.776;2023-05-12T04:12:48;100271.84;;;15.95;69.87
72548;BME280;60570;50.848;6.776;2023-05-12T04:13:49;100277.03;;;15.93;69.98
72548;BME280;60570;50.848;6.776;2023-05-12T04:14:52;100278.19;;;15.92;69.86
72548;BME280;60570;50.848;6.776;2023-05-12T04:15:53;100278.63;;;15.94;69.96
72548;BME280;60570;50.848;6.776;2023-05-12T04:16:55;100281.81;;;15.92;70.07
72548;BME280;60570;50.848;6.776;2023-05-12T04:17:56;100273.78;;;15.91;69.89
72548;BME280;60570;50.848;6.776;2023-05-12T04:18:58;100285.03;;;15.94;70.01
72548;BME280;60570;50.848;6.776;2023-05-12T04:20:00;100283.78;;;15.92;69.91
72548;BME280;60570;50.848;6.776;2023-05-12T04:21:02;100276.22;;;15.92;69.88
72548;BME280;60570;50.848;6.776;2023-05-12T04:22:04;100284.19;;;15.90;70.06
72548;BME280;60570;50.848;6.776;2023-05-12T04:23:09;100274.97;;;15.90;70.12
72548;BME280;60570;50.848;6.776;2023-05-12T04:24:11;100276.16;;;15.89;70.03
72548;BME280;60570;50.848;6.776;2023-05-12T04:25:11;100285.00;;;15.91;70.08
72548;BME280;60570;50.848;6.776;2023-05-12T04:26:13;100281.81;;;15.92;70.03
72548;BME280;60570;50.848;6.776;2023-05-12T04:27:15;100282.53;;;15.89;70.28
72548;BME280;60570;50.848;6.776;2023-05-12T04:28:16;100286.16;;;15.90;70.14
72548;BME280;60570;50.848;6.776;2023-05-12T04:29:17;100286.59;;;15.92;70.05
72548;BME280;60570;50.848;6.776;2023-05-12T04:30:21;100282.97;;;15.91;70.00
72548;BME280;60570;50.848;6.776;2023-05-12T04:31:24;100286.16;;;15.90;69.83
72548;BME280;60570;50.848;6.776;2023-05-12T04:32:25;100280.19;;;15.91;70.04
72548;BME280;60570;50.848;6.776;2023-05-12T04:33:26;100278.56;;;15.90;70.09
72548;BME280;60570;50.848;6.776;2023-05-12T04:34:28;100274.97;;;15.90;70.20
72548;BME280;60570;50.848;6.776;2023-05-12T04:35:28;100284.13;;;15.87;70.24
72548;BME280;60570;50.848;6.776;2023-05-12T04:36:32;100276.91;;;15.86;70.38
72548;BME280;60570;50.848;6.776;2023-05-12T04:37:33;100279.34;;;15.87;70.53
72548;BME280;60570;50.848;6.776;2023-05-12T04:38:34;100284.50;;;15.85;70.31
72548;BME280;60570;50.848;6.776;2023-05-12T04:39:35;100280.13;;;15.88;70.03
72548;BME280;60570;50.848;6.776;2023-05-12T04:40:37;100288.53;;;15.88;70.20
72548;BME280;60570;50.848;6.776;2023-05-12T04:41:38;100288.53;;;15.88;70.27
72548;BME280;60570;50.848;6.776;2023-05-12T04:42:40;100290.59;;;15.91;70.21
72548;BME280;60570;50.848;6.776;2023-05-12T04:43:41;100285.34;;;15.89;70.17
72548;BME280;60570;50.848;6.776;2023-05-12T04:44:43;100289.72;;;15.87;70.24
72548;BME280;60570;50.848;6.776;2023-05-12T04:45:47;100288.53;;;15.88;70.17
72548;BME280;60570;50.848;6.776;2023-05-12T04:46:50;100291.28;;;15.84;70.20
72548;BME280;60570;50.848;6.776;2023-05-12T04:47:53;100301.75;;;15.87;70.15
72548;BME280;60570;50.848;6.776;2023-05-12T04:48:56;100292.53;;;15.87;70.25
72548;BME280;60570;50.848;6.776;2023-05-12T04:49:58;100296.94;;;15.88;70.05
72548;BME280;60570;50.848;6.776;2023-05-12T04:51:00;100300.50;;;15.85;70.24
72548;BME280;60570;50.848;6.776;2023-05-12T04:52:00;100300.50;;;15.85;70.44
72548;BME280;60570;50.848;6.776;2023-05-12T04:53:07;100292.09;;;15.85;70.36
72548;BME280;60570;50.848;6.776;2023-05-12T04:54:09;100299.31;;;15.86;70.16
72548;BME280;60570;50.848;6.776;2023-05-12T04:55:11;100302.94;;;15.86;70.23
72548;BME280;60570;50.848;6.776;2023-05-12T04:56:12;100298.44;;;15.82;70.32
72548;BME280;60570;50.848;6.776;2023-05-12T04:57:14;100301.69;;;15.84;70.31
72548;BME280;60570;50.848;6.776;2023-05-12T04:58:15;100306.50;;;15.83;70.31
72548;BME280;60570;50.848;6.776;2023-05-12T04:59:17;100307.66;;;15.82;70.54
72548;BME280;60570;50.848;6.776;2023-05-12T05:00:18;100305.69;;;15.83;70.20
72548;BME280;60570;50.848;6.776;2023-05-12T05:01:23;100313.25;;;15.82;70.50
72548;BME280;60570;50.848;6.776;2023-05-12T05:02:26;100305.63;;;15.79;70.38
72548;BME280;60570;50.848;6.776;2023-05-12T05:03:29;100313.25;;;15.82;70.30
72548;BME280;60570;50.848;6.776;2023-05-12T05:04:30;100308.47;;;15.83;70.33
72548;BME280;60570;50.848;6.776;2023-05-12T05:05:33;100308.03;;;15.81;70.37
72548;BME280;60570;50.848;6.776;2023-05-12T05:06:34;100312.00;;;15.80;70.48
72548;BME280;60570;50.848;6.776;2023-05-12T05:07:36;100307.22;;;15.80;70.65
72548;BME280;60570;50.848;6.776;2023-05-12T05:08:39;100315.25;;;15.82;70.12
72548;BME280;60570;50.848;6.776;2023-05-12T05:09:42;100319.25;;;15.81;70.33
72548;BME280;60570;50.848;6.776;2023-05-12T05:10:43;100318.03;;;15.82;70.35
72548;BME280;60570;50.848;6.776;2023-05-12T05:11:45;100313.25;;;15.82;70.43
72548;BME280;60570;50.848;6.776;2023-05-12T05:12:45;100318.81;;;15.79;70.49
72548;BME280;60570;50.848;6.776;2023-05-12T05:13:47;100318.44;;;15.80;70.40
72548;BME280;60570;50.848;6.776;2023-05-12T05:14:49;100316.00;;;15.79;70.47
72548;BME280;60570;50.848;6.776;2023-05-12T05:15:50;100324.84;;;15.81;70.22
72548;BME280;60570;50.848;6.776;2023-05-12T05:16:53;100316.81;;;15.79;70.13
72548;BME280;60570;50.848;6.776;2023-05-12T05:17:54;100321.63;;;15.79;70.50
72548;BME280;60570;50.848;6.776;2023-05-12T05:18:55;100322.00;;;15.77;70.46
72548;BME280;60570;50.848;6.776;2023-05-12T05:19:56;100329.59;;;15.77;70.62
72548;BME280;60570;50.848;6.776;2023-05-12T05:20:59;100327.94;;;15.76;70.77
72548;BME280;60570;50.848;6.776;2023-05-12T05:22:01;100333.13;;;15.74;70.35